createdAt,value
2018-09-11T00:01:27.411Z,8.90
2018-09-11T00:03:57.159Z,8.33
2018-09-11T00:06:26.890Z,7.07
2018-09-11T00:08:56.634Z,7.17
2018-09-11T00:11:26.788Z,7.93
2018-09-11T00:13:56.578Z,7.13
2018-09-11T00:16:26.302Z,9.10
2018-09-11T00:18:56.028Z,7.27
2018-09-11T00:21:25.705Z,6.47
2018-09-11T00:23:55.523Z,7.90
2018-09-11T00:26:25.310Z,6.77
2018-09-11T00:28:55.134Z,9.50
2018-09-11T00:31:25.893Z,6.53
2018-09-11T00:33:55.726Z,7.87
2018-09-11T00:36:25.521Z,7.40
2018-09-11T00:38:55.331Z,8.20
2018-09-11T00:41:25.051Z,7.90
2018-09-11T00:43:54.868Z,8.23
2018-09-11T00:46:24.572Z,10.10
2018-09-11T00:48:54.438Z,7.60
2018-09-11T00:51:24.052Z,9.13
2018-09-11T00:53:53.846Z,8.53
2018-09-11T00:56:23.989Z,9.43
2018-09-11T00:58:58.374Z,7.77
2018-09-11T01:01:28.147Z,6.97
2018-09-11T01:03:57.850Z,10.10
2018-09-11T01:06:27.499Z,6.77
2018-09-11T01:08:57.356Z,8.93
2018-09-11T01:11:27.058Z,8.47
2018-09-11T01:13:56.802Z,7.37
2018-09-11T01:16:26.518Z,7.37
2018-09-11T01:18:56.193Z,8.30
2018-09-11T01:21:25.926Z,7.40
2018-09-11T01:23:55.659Z,7.67
2018-09-11T01:26:25.334Z,7.20
2018-09-11T01:28:55.038Z,7.03
2018-09-11T01:31:24.802Z,6.43
2018-09-11T01:33:54.859Z,6.93
2018-09-11T01:36:25.014Z,7.93
2018-09-11T01:38:54.686Z,9.00
2018-09-11T01:41:24.465Z,9.30
2018-09-11T01:43:54.518Z,6.80
2018-09-11T01:49:24.781Z,9.60
2018-09-11T01:51:54.447Z,9.60
2018-09-11T01:54:24.034Z,11.77
2018-09-11T01:56:53.754Z,8.23
2018-09-11T01:59:23.494Z,6.07
2018-09-11T02:01:53.184Z,8.97
2018-09-11T02:04:23.619Z,6.77
2018-09-11T02:06:53.323Z,8.53
2018-09-11T02:09:23.734Z,8.20
2018-09-11T02:11:53.361Z,8.57
2018-09-11T02:14:23.041Z,8.20
2018-09-11T02:16:52.802Z,8.77
2018-09-11T02:19:22.553Z,8.23
2018-09-11T02:21:53.362Z,6.67
2018-09-11T02:24:23.222Z,8.20
2018-09-11T02:26:56.542Z,9.30
2018-09-11T02:29:26.224Z,10.93
2018-09-11T02:31:55.930Z,9.77
2018-09-11T02:34:25.786Z,8.40
2018-09-11T02:37:19.555Z,9.37
2018-09-11T02:39:49.212Z,7.93
2018-09-11T02:42:18.900Z,7.93
2018-09-11T02:44:48.906Z,8.37
2018-09-11T02:47:18.662Z,10.27
2018-09-11T02:49:48.318Z,7.87
2018-09-11T02:52:18.041Z,9.63
2018-09-11T02:57:53.812Z,10.73
2018-09-11T03:00:23.568Z,9.53
2018-09-11T03:02:53.363Z,7.27
2018-09-11T03:05:23.167Z,8.97
2018-09-11T03:07:53.258Z,11.40
2018-09-11T03:10:23.271Z,8.17
2018-09-11T03:12:53.274Z,7.60
2018-09-11T03:15:23.078Z,8.70
2018-09-11T03:18:10.346Z,10.20
2018-09-11T03:20:40.010Z,7.23
2018-09-11T03:23:09.719Z,8.33
2018-09-11T03:25:39.400Z,8.70
2018-09-11T03:28:09.115Z,9.77
2018-09-11T03:30:38.807Z,8.03
2018-09-11T03:33:08.460Z,9.27
2018-09-11T03:35:38.111Z,8.97
2018-09-11T03:38:07.939Z,8.67
2018-09-11T03:40:37.651Z,10.53
2018-09-11T03:43:07.395Z,8.50
2018-09-11T03:45:37.196Z,7.13
2018-09-11T03:48:06.933Z,8.83
2018-09-11T03:50:36.627Z,8.83
2018-09-11T03:53:06.437Z,9.23
2018-09-11T03:55:36.315Z,7.87
2018-09-11T03:58:18.510Z,9.23
2018-09-11T04:00:48.300Z,9.97
2018-09-11T04:03:17.944Z,9.20
2018-09-11T04:05:47.671Z,9.50
2018-09-11T04:08:17.393Z,9.73
2018-09-11T04:10:47.082Z,9.10
2018-09-11T04:13:16.839Z,6.80
2018-09-11T04:15:46.438Z,10.60
2018-09-11T04:18:16.210Z,10.67
2018-09-11T04:20:45.838Z,11.73
2018-09-11T04:23:15.646Z,8.13
2018-09-11T04:25:45.498Z,9.37
2018-09-11T04:28:15.107Z,8.57
2018-09-11T04:30:48.302Z,9.00
2018-09-11T04:33:18.074Z,8.27
2018-09-11T04:35:47.824Z,9.13
2018-09-11T04:38:17.522Z,10.57
2018-09-11T04:40:47.236Z,12.43
2018-09-11T04:43:16.903Z,10.87
2018-09-11T04:45:46.592Z,9.97
2018-09-11T04:48:16.242Z,9.73
2018-09-11T04:50:45.927Z,10.27
2018-09-11T04:53:15.674Z,8.83
2018-09-11T04:55:45.336Z,9.20
2018-09-11T04:58:15.135Z,8.87
2018-09-11T05:00:44.786Z,8.90
2018-09-11T05:03:14.593Z,10.37
2018-09-11T05:05:44.206Z,8.50
2018-09-11T05:08:13.899Z,8.37
2018-09-11T05:10:54.235Z,10.13
2018-09-11T05:13:24.269Z,12.87
2018-09-11T05:15:54.031Z,12.57
2018-09-11T05:18:23.847Z,9.27
2018-09-11T05:20:53.554Z,9.87
2018-09-11T05:23:23.270Z,8.40
2018-09-11T05:25:53.427Z,10.77
2018-09-11T05:28:23.659Z,12.10
2018-09-11T05:30:53.393Z,9.70
2018-09-11T05:33:23.394Z,9.57
2018-09-11T05:35:53.218Z,10.20
2018-09-11T05:38:23.091Z,9.57
2018-09-11T05:40:52.812Z,8.43
2018-09-11T05:43:22.665Z,10.40
2018-09-11T05:45:52.359Z,8.93
2018-09-11T05:48:22.215Z,11.60
2018-09-11T05:50:52.064Z,8.77
2018-09-11T05:53:21.824Z,10.70
2018-09-11T05:55:51.589Z,12.27
2018-09-11T05:58:21.446Z,11.13
2018-09-11T06:00:51.069Z,11.23
2018-09-11T06:03:20.800Z,11.60
2018-09-11T06:05:50.811Z,9.30
2018-09-11T06:08:20.551Z,12.03
2018-09-11T06:10:50.247Z,8.67
2018-09-11T06:13:19.879Z,8.73
2018-09-11T06:15:49.570Z,13.10
2018-09-11T06:18:19.179Z,7.90
2018-09-11T06:20:48.866Z,10.93
2018-09-11T06:23:18.535Z,8.97
2018-09-11T06:25:48.309Z,11.57
2018-09-11T06:28:17.996Z,10.23
2018-09-11T06:30:57.592Z,11.77
2018-09-11T06:33:28.240Z,11.03
2018-09-11T06:35:57.910Z,13.97
2018-09-11T06:41:52.906Z,14.93
2018-09-11T06:44:22.548Z,10.13
2018-09-11T06:46:52.254Z,9.43
2018-09-11T06:49:21.915Z,10.47
2018-09-11T06:51:51.631Z,8.47
2018-09-11T06:54:21.283Z,11.37
2018-09-11T06:56:51.092Z,12.57
2018-09-11T06:59:20.802Z,10.30
2018-09-11T07:01:50.795Z,10.10
2018-09-11T07:04:20.459Z,10.03
2018-09-11T07:06:50.354Z,9.47
2018-09-11T07:09:20.096Z,8.63
2018-09-11T07:11:49.799Z,11.10
2018-09-11T07:14:19.539Z,9.00
2018-09-11T07:16:49.226Z,13.13
2018-09-11T07:19:18.894Z,11.53
2018-09-11T07:21:48.636Z,9.37
2018-09-11T07:24:18.287Z,12.37
2018-09-11T07:26:47.946Z,12.57
2018-09-11T07:29:17.577Z,11.00
2018-09-11T07:31:47.358Z,12.10
2018-09-11T07:34:16.998Z,11.00
2018-09-11T07:36:46.683Z,14.77
2018-09-11T07:39:16.422Z,10.40
2018-09-11T07:41:46.086Z,11.90
2018-09-11T07:44:15.836Z,7.85
2018-09-11T07:46:45.518Z,9.03
2018-09-11T07:49:15.121Z,9.58
2018-09-11T07:51:44.893Z,11.85
2018-09-11T07:54:14.531Z,9.33
2018-09-11T07:56:44.221Z,11.53
2018-09-11T07:59:13.950Z,10.43
2018-09-11T08:01:43.635Z,11.40
2018-09-11T08:04:13.306Z,11.35
2018-09-11T08:06:43.123Z,8.23
2018-09-11T08:09:13.771Z,9.75
2018-09-11T08:11:43.482Z,13.70
2018-09-11T08:14:13.227Z,11.08
2018-09-11T08:16:42.998Z,10.88
2018-09-11T08:19:12.707Z,9.75
2018-09-11T08:21:42.429Z,10.88
2018-09-11T08:24:12.127Z,8.28
2018-09-11T08:26:41.795Z,8.45
2018-09-11T08:29:11.559Z,10.13
2018-09-11T08:31:41.242Z,12.13
2018-09-11T08:34:10.923Z,9.58
2018-09-11T08:36:40.655Z,10.10
2018-09-11T08:39:11.414Z,12.07
2018-09-11T08:41:41.185Z,13.10
2018-09-11T08:44:10.922Z,8.50
2018-09-11T08:46:40.614Z,14.90
2018-09-11T08:49:10.302Z,12.13
2018-09-11T08:51:40.008Z,10.18
2018-09-11T08:54:09.627Z,9.98
2018-09-11T08:56:39.371Z,10.25
2018-09-11T08:59:09.006Z,10.98
2018-09-11T09:01:38.624Z,10.68
2018-09-11T09:04:08.342Z,10.98
2018-09-11T09:06:37.927Z,9.40
2018-09-11T09:09:11.281Z,10.60
2018-09-11T09:11:41.180Z,12.90
2018-09-11T09:14:10.904Z,10.48
2018-09-11T09:16:40.614Z,9.25
2018-09-11T09:19:10.364Z,8.45
2018-09-11T09:21:40.082Z,14.93
2018-09-11T09:24:09.810Z,9.70
2018-09-11T09:26:39.563Z,11.18
2018-09-11T09:29:09.244Z,11.10
2018-09-11T09:31:41.098Z,10.65
2018-09-11T09:34:10.761Z,10.43
2018-09-11T09:36:40.564Z,9.15
2018-09-11T09:39:10.326Z,10.40
2018-09-11T09:41:40.033Z,10.18
2018-09-11T09:44:09.717Z,9.78
2018-09-11T09:46:39.967Z,8.38
2018-09-11T09:49:09.816Z,9.65
2018-09-11T09:51:39.551Z,10.20
2018-09-11T09:54:09.195Z,9.45
2018-09-11T09:56:38.842Z,10.80
2018-09-11T09:59:08.524Z,8.90
2018-09-11T10:01:43.528Z,9.73
2018-09-11T10:04:13.255Z,9.85
2018-09-11T10:06:42.971Z,10.45
2018-09-11T10:09:13.670Z,9.10
2018-09-11T10:11:43.414Z,9.35
2018-09-11T10:14:13.128Z,8.43
2018-09-11T10:16:42.843Z,8.65
2018-09-11T10:19:12.515Z,8.43
2018-09-11T10:21:42.217Z,10.68
2018-09-11T10:24:11.870Z,7.53
2018-09-11T10:26:41.568Z,9.90
2018-09-11T10:29:12.403Z,7.65
2018-09-11T10:31:42.123Z,9.33
2018-09-11T10:34:11.927Z,9.78
2018-09-11T10:36:41.654Z,7.75
2018-09-11T10:39:11.317Z,9.15
2018-09-11T10:41:41.084Z,6.87
2018-09-11T10:44:10.942Z,7.85
2018-09-11T10:46:40.701Z,8.65
2018-09-11T10:49:10.414Z,8.10
2018-09-11T10:51:40.371Z,7.45
2018-09-11T10:54:10.074Z,7.53
2018-09-11T10:56:39.647Z,7.80
2018-09-11T10:59:09.358Z,9.73
2018-09-11T11:01:39.066Z,8.05
2018-09-11T11:04:08.981Z,7.53
2018-09-11T11:06:38.749Z,8.33
2018-09-11T11:09:10.958Z,7.35
2018-09-11T11:12:08.865Z,6.20
2018-09-11T11:14:40.659Z,7.85
2018-09-11T11:17:10.509Z,9.35
2018-09-11T11:19:40.099Z,6.95
2018-09-11T11:22:09.751Z,6.20
2018-09-11T11:24:40.557Z,7.62
2018-09-11T11:27:10.493Z,7.33
2018-09-11T11:29:40.145Z,6.67
2018-09-11T11:35:38.003Z,8.68
2018-09-11T11:38:07.790Z,6.60
2018-09-11T11:40:37.461Z,7.92
2018-09-11T11:43:07.240Z,6.95
2018-09-11T11:45:37.046Z,6.72
2018-09-11T11:48:06.824Z,7.28
2018-09-11T11:50:36.519Z,5.53
2018-09-11T11:53:06.378Z,6.33
2018-09-11T11:55:36.378Z,6.17
2018-09-11T11:58:06.143Z,5.42
2018-09-11T12:00:39.146Z,6.70
2018-09-11T12:03:09.751Z,8.45
2018-09-11T12:05:39.394Z,7.85
2018-09-11T12:08:09.166Z,4.80
2018-09-11T12:10:38.835Z,6.35
2018-09-11T12:13:08.507Z,6.05
2018-09-11T12:15:38.142Z,4.40
2018-09-11T12:18:07.895Z,5.12
2018-09-11T12:20:37.518Z,6.75
2018-09-11T12:23:07.040Z,4.90
2018-09-11T12:25:48.567Z,6.75
2018-09-11T12:28:17.936Z,7.80
2018-09-11T12:30:47.480Z,5.95
2018-09-11T12:33:16.810Z,7.08
2018-09-11T12:35:46.186Z,5.33
2018-09-11T12:38:15.497Z,4.92
2018-09-11T12:40:44.787Z,6.58
2018-09-11T12:43:14.122Z,6.00
2018-09-11T12:45:43.568Z,6.75
2018-09-11T12:51:20.849Z,4.40
2018-09-11T12:53:50.257Z,6.60
2018-09-11T12:56:19.561Z,5.40
2018-09-11T12:58:48.868Z,4.78
2018-09-11T13:01:18.195Z,6.00
2018-09-11T13:03:47.497Z,6.62
2018-09-11T13:06:16.974Z,6.90
2018-09-11T13:08:46.301Z,4.00
2018-09-11T13:11:15.613Z,6.10
2018-09-11T13:13:44.927Z,5.17
2018-09-11T13:16:14.238Z,5.62
2018-09-11T13:18:43.577Z,5.72
2018-09-11T13:21:12.885Z,5.87
2018-09-11T13:23:42.222Z,5.25
2018-09-11T13:26:11.549Z,4.97
2018-09-11T13:28:40.853Z,4.28
2018-09-11T13:31:10.260Z,4.75
2018-09-11T13:33:39.755Z,6.12
2018-09-11T13:36:09.094Z,4.90
2018-09-11T13:38:38.440Z,5.72
2018-09-11T13:41:08.094Z,4.72
2018-09-11T13:43:37.410Z,4.22
2018-09-11T13:46:06.868Z,5.65
2018-09-11T13:48:36.181Z,4.17
2018-09-11T13:51:05.565Z,5.95
2018-09-11T13:53:34.877Z,5.90
2018-09-11T13:56:04.251Z,4.58
2018-09-11T13:58:33.533Z,4.80
2018-09-11T14:01:02.871Z,4.78
2018-09-11T14:03:32.220Z,5.37
2018-09-11T14:06:01.594Z,4.25
2018-09-11T14:08:31.158Z,5.00
2018-09-11T14:11:00.535Z,3.10
2018-09-11T14:13:29.940Z,5.60
2018-09-11T14:15:59.497Z,6.33
2018-09-11T14:18:28.923Z,6.10
2018-09-11T14:20:58.330Z,5.62
2018-09-11T14:23:27.718Z,4.55
2018-09-11T14:25:57.130Z,4.33
2018-09-11T14:28:26.554Z,5.42
2018-09-11T14:30:55.904Z,5.95
2018-09-11T14:33:25.230Z,4.80
2018-09-11T14:35:54.565Z,5.90
2018-09-11T14:38:24.121Z,5.78
2018-09-11T14:40:53.625Z,4.70
2018-09-11T14:43:22.966Z,4.22
2018-09-11T14:45:52.300Z,6.03
2018-09-11T14:48:21.773Z,6.10
2018-09-11T14:50:51.080Z,5.78
2018-09-11T14:53:20.407Z,5.47
2018-09-11T14:55:49.788Z,5.70
2018-09-11T14:58:19.361Z,6.65
2018-09-11T15:00:48.721Z,5.37
2018-09-11T15:03:18.038Z,5.08
2018-09-11T15:05:47.338Z,4.80
2018-09-11T15:08:16.666Z,4.90
2018-09-11T15:10:45.985Z,4.75
2018-09-11T15:13:15.409Z,5.08
2018-09-11T15:15:44.763Z,6.22
2018-09-11T15:18:14.064Z,5.83
2018-09-11T15:20:43.493Z,5.15
2018-09-11T15:23:12.883Z,4.53
2018-09-11T15:25:42.412Z,4.80
2018-09-11T15:28:11.736Z,4.42
2018-09-11T15:30:41.081Z,8.58
2018-09-11T15:33:10.389Z,6.05
2018-09-11T15:35:39.789Z,4.35
2018-09-11T15:38:09.529Z,3.90
2018-09-11T15:40:38.829Z,4.05
2018-09-11T15:43:08.132Z,3.65
2018-09-11T15:45:37.498Z,4.28
2018-09-11T15:48:06.835Z,5.20
2018-09-11T15:50:36.137Z,5.25
2018-09-11T15:53:05.449Z,4.37
2018-09-11T15:55:37.984Z,4.92
2018-09-11T15:58:07.806Z,4.72
2018-09-11T16:00:37.109Z,6.37
2018-09-11T16:03:06.421Z,4.50
2018-09-11T16:05:35.805Z,5.37
2018-09-11T16:08:05.149Z,5.62
2018-09-11T16:10:34.474Z,5.45
2018-09-11T16:13:03.958Z,5.47
2018-09-11T16:15:33.245Z,6.15
2018-09-11T16:18:02.549Z,4.05
2018-09-11T16:20:31.864Z,4.45
2018-09-11T16:23:01.220Z,6.70
2018-09-11T16:25:30.533Z,5.78
2018-09-11T16:27:59.880Z,6.55
2018-09-11T16:30:29.218Z,7.45
2018-09-11T16:32:58.521Z,6.80
2018-09-11T16:35:27.894Z,5.97
2018-09-11T16:37:57.281Z,8.38
2018-09-11T16:40:26.743Z,8.98
2018-09-11T16:43:21.258Z,15.08
2018-09-11T16:45:50.948Z,6.45
2018-09-11T16:48:20.340Z,7.20
2018-09-11T16:50:49.810Z,8.53
2018-09-11T16:53:19.312Z,7.72
2018-09-11T16:55:48.762Z,7.35
2018-09-11T16:58:18.373Z,6.50
2018-09-11T17:00:47.673Z,7.62
2018-09-11T17:03:17.280Z,8.03
2018-09-11T17:05:46.631Z,6.50
2018-09-11T17:08:15.939Z,6.90
2018-09-11T17:10:45.248Z,6.70
2018-09-11T17:13:14.668Z,8.37
2018-09-11T17:15:57.901Z,7.70
2018-09-11T17:18:27.244Z,9.27
2018-09-11T17:20:56.553Z,8.40
2018-09-11T17:23:25.906Z,9.03
2018-09-11T17:25:55.313Z,11.20
2018-09-11T17:28:25.081Z,10.37
2018-09-11T17:31:07.768Z,12.63
2018-09-11T17:33:37.158Z,8.57
2018-09-11T17:36:06.993Z,8.53
2018-09-11T17:38:36.497Z,9.40
2018-09-11T17:41:05.913Z,7.13
2018-09-11T17:43:35.314Z,7.80
2018-09-11T17:46:04.717Z,9.47
2018-09-11T17:48:34.193Z,11.07
2018-09-11T17:51:03.526Z,8.90
2018-09-11T17:53:33.338Z,8.23
2018-09-11T17:56:02.677Z,10.20
2018-09-11T17:58:32.279Z,8.13
2018-09-11T18:01:02.466Z,8.93
2018-09-11T18:03:32.581Z,10.07
2018-09-11T18:06:02.283Z,7.83
2018-09-11T18:08:31.612Z,9.53
2018-09-11T18:11:00.954Z,8.90
2018-09-11T18:13:30.318Z,9.43
2018-09-11T18:15:59.705Z,8.67
2018-09-11T18:18:29.061Z,8.67
2018-09-11T18:20:58.426Z,7.83
2018-09-11T18:23:27.872Z,10.07
2018-09-11T18:25:57.202Z,11.13
2018-09-11T18:28:28.616Z,8.13
2018-09-11T18:30:58.637Z,8.80
2018-09-11T18:33:28.144Z,8.57
2018-09-11T18:35:57.509Z,8.83
2018-09-11T18:38:26.957Z,9.57
2018-09-11T18:40:56.385Z,9.97
2018-09-11T18:43:26.081Z,10.07
2018-09-11T18:45:59.808Z,13.57
2018-09-11T18:48:29.673Z,8.93
2018-09-11T18:50:59.112Z,8.77
2018-09-11T18:53:41.166Z,11.00
2018-09-11T18:56:12.107Z,7.57
2018-09-11T18:58:42.124Z,10.03
2018-09-11T19:01:12.125Z,10.10
2018-09-11T19:03:41.513Z,8.73
2018-09-11T19:06:14.873Z,8.47
2018-09-11T19:08:45.547Z,8.57
2018-09-11T19:11:15.138Z,8.10
2018-09-11T19:13:46.376Z,13.67
2018-09-11T19:16:16.178Z,14.07
2018-09-11T19:18:47.072Z,8.47
2018-09-11T19:21:24.504Z,8.67
2018-09-11T19:23:54.718Z,8.77
2018-09-11T19:26:25.915Z,9.37
2018-09-11T19:28:56.524Z,11.83
2018-09-11T19:31:27.920Z,9.80
2018-09-11T19:33:58.039Z,12.03
2018-09-11T19:36:29.107Z,9.23
2018-09-11T19:38:59.228Z,10.80
2018-09-11T19:41:29.235Z,8.83
2018-09-11T19:44:03.484Z,8.83
2018-09-11T19:46:33.198Z,9.13
2018-09-11T19:49:02.969Z,10.70
2018-09-11T19:51:32.819Z,8.97
2018-09-11T19:54:04.832Z,12.47
2018-09-11T19:56:34.573Z,10.07
2018-09-11T19:59:04.480Z,11.90
2018-09-11T20:01:34.483Z,9.67
2018-09-11T20:04:04.212Z,9.20
2018-09-11T20:06:34.136Z,11.30
2018-09-11T20:09:04.387Z,9.90
2018-09-11T20:11:34.569Z,10.57
2018-09-11T20:14:04.968Z,11.33
2018-09-11T20:16:38.342Z,8.13
2018-09-11T20:19:08.334Z,8.77
2018-09-11T20:21:38.154Z,9.77
2018-09-11T20:24:07.834Z,10.87
2018-09-11T20:26:37.530Z,12.23
2018-09-11T20:29:07.352Z,8.60
2018-09-11T20:31:37.119Z,9.37
2018-09-11T20:34:07.206Z,12.63
2018-09-11T20:37:01.370Z,10.53
2018-09-11T20:39:31.081Z,11.17
2018-09-11T20:42:00.954Z,8.53
2018-09-11T20:44:30.676Z,10.47
2018-09-11T20:47:01.420Z,12.20
2018-09-11T20:49:31.182Z,13.13
2018-09-11T20:52:00.813Z,10.40
2018-09-11T20:54:38.903Z,12.00
2018-09-11T20:57:08.598Z,11.20
2018-09-11T20:59:38.332Z,10.87
2018-09-11T21:02:08.219Z,10.90
2018-09-11T21:04:38.008Z,10.93
2018-09-11T21:07:12.022Z,11.17
2018-09-11T21:09:42.107Z,9.97
2018-09-11T21:12:11.761Z,9.27
2018-09-11T21:14:52.826Z,10.60
2018-09-11T21:17:22.805Z,10.23
2018-09-11T21:20:18.479Z,12.77
2018-09-11T21:22:51.612Z,8.90
2018-09-11T21:25:21.391Z,10.83
2018-09-11T21:27:51.063Z,8.27
2018-09-11T21:30:28.141Z,11.03
2018-09-11T21:32:57.867Z,11.57
2018-09-11T21:35:27.618Z,10.80
2018-09-11T21:37:57.532Z,10.33
2018-09-11T21:40:27.118Z,9.57
2018-09-11T21:42:56.870Z,10.20
2018-09-11T21:45:26.621Z,9.60
2018-09-11T21:47:56.398Z,11.30
2018-09-11T21:50:26.092Z,10.90
2018-09-11T21:52:55.850Z,9.37
2018-09-11T21:55:25.754Z,10.67
2018-09-11T21:57:57.523Z,9.40
2018-09-11T22:00:27.271Z,11.60
2018-09-11T22:02:57.914Z,10.87
2018-09-11T22:05:27.687Z,8.63
2018-09-11T22:07:57.416Z,10.20
2018-09-11T22:10:27.255Z,11.80
2018-09-11T22:12:56.956Z,8.90
2018-09-11T22:15:40.423Z,9.83
2018-09-11T22:18:10.009Z,10.83
2018-09-11T22:20:39.747Z,8.77
2018-09-11T22:23:09.454Z,13.03
2018-09-11T22:25:39.170Z,10.03
2018-09-11T22:28:08.890Z,11.13
2018-09-11T22:30:42.907Z,10.23
2018-09-11T22:33:12.703Z,9.90
2018-09-11T22:35:42.838Z,13.57
2018-09-11T22:38:12.587Z,11.07
2018-09-11T22:40:42.195Z,10.63
2018-09-11T22:43:11.952Z,10.27
2018-09-11T22:45:41.681Z,9.67
2018-09-11T22:48:11.340Z,9.40
2018-09-11T22:50:41.207Z,18.47
2018-09-11T22:53:10.912Z,9.50
2018-09-11T22:55:40.614Z,11.43
2018-09-11T22:58:10.318Z,10.03
2018-09-11T23:00:40.039Z,10.00
2018-09-11T23:03:09.838Z,11.43
2018-09-11T23:05:39.443Z,11.20
2018-09-11T23:08:09.155Z,10.60
2018-09-11T23:10:38.889Z,8.97
2018-09-11T23:13:08.535Z,12.40
2018-09-11T23:15:38.205Z,11.47
2018-09-11T23:18:07.834Z,12.27
2018-09-11T23:20:53.980Z,11.10
2018-09-11T23:23:23.719Z,11.80
2018-09-11T23:25:53.398Z,9.93
2018-09-11T23:28:23.176Z,10.83
2018-09-11T23:30:53.055Z,9.43
2018-09-11T23:33:22.747Z,9.17
2018-09-11T23:35:52.635Z,8.70
2018-09-11T23:38:22.339Z,12.23
2018-09-11T23:40:52.232Z,11.03
2018-09-11T23:43:21.894Z,10.37
2018-09-11T23:45:51.700Z,12.40
2018-09-11T23:48:21.401Z,11.40
2018-09-11T23:50:51.139Z,9.87
2018-09-11T23:53:20.895Z,12.13
2018-09-11T23:55:50.699Z,10.23
2018-09-11T23:58:20.352Z,10.87
